createdAt,value
2019-03-30T00:03:01.833Z,92.60
2019-03-30T00:07:03.812Z,92.50
2019-03-30T00:11:05.708Z,92.50
2019-03-30T00:15:07.747Z,92.40
2019-03-30T00:19:09.646Z,92.30
2019-03-30T00:23:11.531Z,92.40
2019-03-30T00:27:13.467Z,92.30
2019-03-30T00:31:15.378Z,92.20
2019-03-30T00:35:17.528Z,92.20
2019-03-30T00:39:19.434Z,92.10
2019-03-30T00:43:21.316Z,92.20
2019-03-30T00:47:23.208Z,92.20
2019-03-30T00:51:25.098Z,92.20
2019-03-30T00:55:26.995Z,92.00
2019-03-30T00:59:28.900Z,92.10
2019-03-30T01:03:30.790Z,92.40
2019-03-30T01:07:32.691Z,92.40
2019-03-30T01:11:34.587Z,92.50
2019-03-30T01:15:49.722Z,93.10
2019-03-30T01:20:02.341Z,93.40
2019-03-30T01:23:55.247Z,93.50
2019-03-30T01:27:57.144Z,93.80
2019-03-30T01:31:59.044Z,93.80
2019-03-30T01:36:01.109Z,93.30
2019-03-30T01:40:03.226Z,92.90
2019-03-30T01:44:05.199Z,93.10
2019-03-30T01:48:07.091Z,92.90
2019-03-30T01:52:09.038Z,92.50
2019-03-30T01:56:11.004Z,92.30
2019-03-30T02:00:13.859Z,92.40
2019-03-30T02:04:15.763Z,92.80
2019-03-30T02:08:17.656Z,92.80
2019-03-30T02:12:19.541Z,93.00
2019-03-30T02:16:21.444Z,93.00
2019-03-30T02:20:39.150Z,92.80
2019-03-30T02:24:41.046Z,92.70
2019-03-30T02:28:42.980Z,92.90
2019-03-30T02:32:44.880Z,93.00
2019-03-30T02:36:47.488Z,93.10
2019-03-30T02:40:49.422Z,93.00
2019-03-30T02:44:51.303Z,92.70
2019-03-30T02:48:53.213Z,92.90
2019-03-30T02:53:02.812Z,93.00
2019-03-30T02:57:04.801Z,93.10
2019-03-30T03:01:06.705Z,93.10
2019-03-30T03:05:09.613Z,92.80
2019-03-30T03:09:11.486Z,93.10
2019-03-30T03:13:13.389Z,93.00
2019-03-30T03:17:15.277Z,93.30
2019-03-30T03:21:17.170Z,93.60
2019-03-30T03:25:20.145Z,93.50
2019-03-30T03:29:22.034Z,93.40
2019-03-30T03:33:23.921Z,93.40
2019-03-30T03:37:43.380Z,93.40
2019-03-30T03:41:29.667Z,93.50
2019-03-30T03:45:31.573Z,93.50
2019-03-30T03:49:33.462Z,93.20
2019-03-30T03:53:36.570Z,93.50
2019-03-30T03:57:43.471Z,92.90
2019-03-30T04:01:47.679Z,92.90
2019-03-30T04:05:50.683Z,93.30
2019-03-30T04:10:37.696Z,93.40
2019-03-30T04:14:43.008Z,93.10
2019-03-30T04:18:47.949Z,93.50
2019-03-30T04:22:48.992Z,93.80
2019-03-30T04:26:50.901Z,93.80
2019-03-30T04:30:52.798Z,93.60
2019-03-30T04:34:54.695Z,93.60
2019-03-30T04:38:56.605Z,93.50
2019-03-30T04:42:58.601Z,93.50
2019-03-30T04:47:00.511Z,93.50
2019-03-30T04:51:02.424Z,93.60
2019-03-30T04:55:06.706Z,93.40
2019-03-30T04:59:08.604Z,93.20
2019-03-30T05:03:10.510Z,93.00
2019-03-30T05:07:12.407Z,93.10
2019-03-30T05:11:14.327Z,93.30
2019-03-30T05:15:16.478Z,93.20
2019-03-30T05:19:18.463Z,93.50
2019-03-30T05:23:20.423Z,93.50
2019-03-30T05:27:22.328Z,93.70
2019-03-30T05:31:24.229Z,94.60
2019-03-30T05:35:26.120Z,93.80
2019-03-30T05:39:28.022Z,93.80
2019-03-30T05:43:29.926Z,94.00
2019-03-30T05:47:31.848Z,94.30
2019-03-30T05:51:33.839Z,95.10
2019-03-30T05:55:35.795Z,94.80
2019-03-30T05:59:37.694Z,94.90
2019-03-30T06:03:40.565Z,94.80
2019-03-30T06:07:42.471Z,95.10
2019-03-30T06:11:44.432Z,95.10
2019-03-30T06:15:46.328Z,95.30
2019-03-30T06:19:48.239Z,95.10
2019-03-30T06:23:50.151Z,94.90
2019-03-30T06:27:52.114Z,95.20
2019-03-30T06:31:54.046Z,95.20
2019-03-30T06:35:55.971Z,95.50
2019-03-30T06:39:57.878Z,96.30
2019-03-30T06:43:59.793Z,95.90
2019-03-30T06:48:01.709Z,96.40
2019-03-30T06:52:03.646Z,96.10
2019-03-30T06:56:05.552Z,96.10
2019-03-30T07:00:09.352Z,96.80
2019-03-30T07:04:12.108Z,97.90
2019-03-30T07:08:16.394Z,97.80
2019-03-30T07:12:26.239Z,97.80
2019-03-30T07:16:31.298Z,97.70
2019-03-30T07:20:33.240Z,97.60
2019-03-30T07:24:35.159Z,97.40
2019-03-30T07:28:37.159Z,97.20
2019-03-30T07:32:39.064Z,97.10
2019-03-30T07:36:40.983Z,97.00
2019-03-30T07:40:42.885Z,96.90
2019-03-30T07:44:44.789Z,96.60
2019-03-30T07:48:47.865Z,96.50
2019-03-30T07:52:49.828Z,95.60
2019-03-30T07:57:04.288Z,95.50
2019-03-30T08:00:55.401Z,95.50
2019-03-30T08:04:57.329Z,94.40
2019-03-30T08:08:59.382Z,94.40
2019-03-30T08:13:01.278Z,93.50
2019-03-30T08:17:03.238Z,93.30
2019-03-30T08:21:05.209Z,93.00
2019-03-30T08:25:08.044Z,92.30
2019-03-30T08:29:09.984Z,92.10
2019-03-30T08:41:45.927Z,91.20
2019-03-30T08:45:49.061Z,90.80
2019-03-30T08:49:51.015Z,89.60
2019-03-30T08:53:55.113Z,86.80
2019-03-30T08:57:58.198Z,85.90
2019-03-30T09:02:00.126Z,84.90
2019-03-30T09:06:02.129Z,82.50
2019-03-30T09:10:06.544Z,83.90
2019-03-30T09:14:08.480Z,80.40
2019-03-30T09:18:10.410Z,78.70
2019-03-30T09:22:12.369Z,79.50
2019-03-30T09:26:16.664Z,76.80
2019-03-30T09:30:18.457Z,73.90
2019-03-30T09:34:20.403Z,70.50
2019-03-30T09:38:22.440Z,68.10
2019-03-30T09:42:24.424Z,66.60
2019-03-30T09:46:26.326Z,63.90
2019-03-30T09:50:28.246Z,62.70
2019-03-30T09:54:30.188Z,61.80
2019-03-30T09:58:32.126Z,60.50
2019-03-30T10:02:34.074Z,59.20
2019-03-30T10:06:36.043Z,57.60
2019-03-30T10:10:37.995Z,56.60
2019-03-30T10:14:39.941Z,56.20
2019-03-30T10:18:41.916Z,56.40
2019-03-30T10:22:44.839Z,54.80
2019-03-30T10:26:48.018Z,51.80
2019-03-30T10:30:49.926Z,53.00
2019-03-30T10:34:51.878Z,51.90
2019-03-30T10:38:54.086Z,51.60
2019-03-30T10:42:56.113Z,50.50
2019-03-30T10:46:58.064Z,48.90
2019-03-30T10:51:00.117Z,48.60
2019-03-30T10:55:02.086Z,48.60
2019-03-30T10:59:04.871Z,48.50
2019-03-30T11:03:07.183Z,46.70
2019-03-30T11:11:31.582Z,47.40
2019-03-30T11:15:34.329Z,46.50
2019-03-30T11:19:36.395Z,46.90
2019-03-30T11:23:38.315Z,44.50
2019-03-30T11:27:40.247Z,45.00
2019-03-30T11:31:42.276Z,45.50
2019-03-30T11:35:44.192Z,45.60
2019-03-30T11:39:46.192Z,44.70
2019-03-30T11:43:48.135Z,42.70
2019-03-30T11:47:50.059Z,39.40
2019-03-30T11:51:51.994Z,38.80
2019-03-30T11:55:53.916Z,38.00
2019-03-30T11:59:55.854Z,40.00
2019-03-30T12:03:57.776Z,39.00
2019-03-30T12:07:59.737Z,37.90
2019-03-30T12:12:02.306Z,37.00
2019-03-30T12:16:04.882Z,37.10
2019-03-30T12:20:08.713Z,33.90
2019-03-30T12:24:10.631Z,34.50
2019-03-30T12:28:12.563Z,34.60
2019-03-30T12:32:14.473Z,33.90
2019-03-30T12:36:16.403Z,33.60
2019-03-30T12:40:18.392Z,33.60
2019-03-30T12:44:20.314Z,33.60
2019-03-30T12:48:22.236Z,34.50
2019-03-30T12:52:26.483Z,33.10
2019-03-30T12:56:27.791Z,31.10
2019-03-30T13:00:29.692Z,31.80
2019-03-30T13:04:31.688Z,30.00
2019-03-30T13:08:33.607Z,28.70
2019-03-30T13:12:35.525Z,29.70
2019-03-30T13:16:37.452Z,28.90
2019-03-30T13:20:39.451Z,30.00
2019-03-30T13:24:41.373Z,28.80
2019-03-30T13:28:43.299Z,29.30
2019-03-30T13:32:45.389Z,28.80
2019-03-30T13:36:48.125Z,29.90
2019-03-30T13:40:50.050Z,29.50
2019-03-30T13:44:52.015Z,27.80
2019-03-30T13:48:53.945Z,27.70
2019-03-30T13:52:55.844Z,28.20
2019-03-30T13:56:57.757Z,28.60
2019-03-30T14:00:59.680Z,26.40
2019-03-30T14:05:01.818Z,25.60
2019-03-30T14:09:04.662Z,25.50
2019-03-30T14:13:06.795Z,26.40
2019-03-30T14:17:08.721Z,26.40
2019-03-30T14:21:10.642Z,26.40
2019-03-30T14:25:12.642Z,26.40
2019-03-30T14:29:14.629Z,26.90
2019-03-30T14:33:16.620Z,26.80
2019-03-30T14:37:18.533Z,27.30
2019-03-30T14:41:20.455Z,27.10
2019-03-30T14:45:22.372Z,27.00
2019-03-30T14:49:24.301Z,26.50
2019-03-30T14:53:26.329Z,26.20
2019-03-30T14:57:28.342Z,25.70
2019-03-30T15:01:30.249Z,26.10
2019-03-30T15:05:32.210Z,25.90
2019-03-30T15:09:34.110Z,25.60
2019-03-30T15:13:36.032Z,26.50
2019-03-30T15:17:40.611Z,26.40
2019-03-30T15:21:41.807Z,26.80
2019-03-30T15:25:43.716Z,26.00
2019-03-30T15:29:45.775Z,26.00
2019-03-30T15:33:48.222Z,26.30
2019-03-30T15:37:50.153Z,27.10
2019-03-30T15:41:52.078Z,26.90
2019-03-30T15:45:54.007Z,27.30
2019-03-30T15:49:55.926Z,27.80
2019-03-30T15:53:57.842Z,28.50
2019-03-30T15:57:59.776Z,27.80
2019-03-30T16:02:01.762Z,29.00
2019-03-30T16:06:03.682Z,28.70
2019-03-30T16:10:07.207Z,29.80
2019-03-30T16:14:09.120Z,29.80
2019-03-30T16:18:11.033Z,30.00
2019-03-30T16:22:13.018Z,29.10
2019-03-30T16:26:15.115Z,30.90
2019-03-30T16:30:18.226Z,31.00
2019-03-30T16:34:20.418Z,31.10
2019-03-30T16:38:22.414Z,33.00
2019-03-30T16:42:24.386Z,32.80
2019-03-30T16:46:26.299Z,34.80
2019-03-30T16:50:28.196Z,37.10
2019-03-30T16:54:30.116Z,37.00
2019-03-30T16:58:32.030Z,38.20
2019-03-30T17:02:33.961Z,39.60
2019-03-30T17:06:50.282Z,41.30
2019-03-30T17:10:52.452Z,41.10
2019-03-30T17:14:54.367Z,40.20
2019-03-30T17:18:56.287Z,43.60
2019-03-30T17:22:59.039Z,44.20
2019-03-30T17:27:01.680Z,44.80
2019-03-30T17:31:03.583Z,46.10
2019-03-30T17:35:07.303Z,47.30
2019-03-30T17:39:11.961Z,47.70
2019-03-30T17:43:13.875Z,49.00
2019-03-30T17:47:15.784Z,50.40
2019-03-30T17:51:17.691Z,51.60
2019-03-30T17:55:33.128Z,52.90
2019-03-30T17:59:24.424Z,53.70
2019-03-30T18:03:26.391Z,54.10
2019-03-30T18:07:28.313Z,55.40
2019-03-30T18:11:30.213Z,56.40
2019-03-30T18:15:34.732Z,57.00
2019-03-30T18:19:35.973Z,57.40
2019-03-30T18:23:37.914Z,58.30
2019-03-30T18:27:39.830Z,59.90
2019-03-30T18:31:42.541Z,60.40
2019-03-30T18:35:44.753Z,61.70
2019-03-30T18:39:47.029Z,62.80
2019-03-30T18:43:49.876Z,63.00
2019-03-30T18:47:52.211Z,63.20
2019-03-30T18:51:55.015Z,63.90
2019-03-30T18:55:56.926Z,65.60
2019-03-30T18:59:58.832Z,66.40
2019-03-30T19:04:00.727Z,66.80
2019-03-30T19:08:03.933Z,67.30
2019-03-30T19:12:05.993Z,69.70
2019-03-30T19:16:08.067Z,70.30
2019-03-30T19:20:10.570Z,71.40
2019-03-30T19:24:12.480Z,70.70
2019-03-30T19:28:14.374Z,70.50
2019-03-30T19:32:16.258Z,70.70
2019-03-30T19:36:18.168Z,70.80
2019-03-30T19:40:20.081Z,72.10
2019-03-30T19:44:21.960Z,72.50
2019-03-30T19:48:23.854Z,72.70
2019-03-30T19:52:39.321Z,72.40
2019-03-30T19:56:29.416Z,74.20
2019-03-30T20:00:31.397Z,73.00
2019-03-30T20:04:33.358Z,73.20
2019-03-30T20:08:35.251Z,73.60
2019-03-30T20:12:37.943Z,73.50
2019-03-30T20:16:42.205Z,74.20
2019-03-30T20:20:43.552Z,74.70
2019-03-30T20:24:45.453Z,74.70
2019-03-30T20:28:48.470Z,75.00
2019-03-30T20:32:50.364Z,75.50
2019-03-30T20:36:52.259Z,76.30
2019-03-30T20:40:54.231Z,76.30
2019-03-30T20:44:56.122Z,76.80
2019-03-30T20:48:58.022Z,77.70
2019-03-30T20:52:59.944Z,77.70
2019-03-30T20:57:01.845Z,79.00
2019-03-30T21:01:04.383Z,79.40
2019-03-30T21:05:08.283Z,79.80
2019-03-30T21:09:11.039Z,79.80
2019-03-30T21:13:12.942Z,80.10
2019-03-30T21:17:14.837Z,80.70
2019-03-30T21:21:16.735Z,80.70
2019-03-30T21:25:18.633Z,80.70
2019-03-30T21:29:20.512Z,81.30
2019-03-30T21:33:22.424Z,81.80
2019-03-30T21:37:24.342Z,82.10
2019-03-30T21:41:26.231Z,82.50
2019-03-30T21:45:28.218Z,83.00
2019-03-30T21:49:31.138Z,83.70
2019-03-30T21:53:33.176Z,82.80
2019-03-30T21:57:35.083Z,83.30
2019-03-30T22:01:36.983Z,83.80
2019-03-30T22:05:38.878Z,83.90
2019-03-30T22:09:41.526Z,83.50
2019-03-30T22:13:43.423Z,83.10
2019-03-30T22:17:45.318Z,83.70
2019-03-30T22:21:48.447Z,83.90
2019-03-30T22:25:50.347Z,84.20
2019-03-30T22:29:52.309Z,84.50
2019-03-30T22:33:54.203Z,85.00
2019-03-30T22:37:56.114Z,85.70
2019-03-30T22:41:58.009Z,85.60
2019-03-30T22:45:59.902Z,85.60
2019-03-30T22:50:01.789Z,85.10
2019-03-30T22:54:03.765Z,85.40
2019-03-30T22:58:05.652Z,86.50
2019-03-30T23:02:07.762Z,86.20
2019-03-30T23:06:09.676Z,85.90
2019-03-30T23:10:11.730Z,86.50
2019-03-30T23:14:13.627Z,87.00
2019-03-30T23:18:15.529Z,86.50
2019-03-30T23:22:17.422Z,86.60
2019-03-30T23:26:19.323Z,87.20
2019-03-30T23:30:21.221Z,88.20
2019-03-30T23:34:23.128Z,87.30
2019-03-30T23:38:25.023Z,87.40
2019-03-30T23:42:26.932Z,87.40
2019-03-30T23:46:28.828Z,87.80
2019-03-30T23:50:30.720Z,88.10
2019-03-30T23:54:32.629Z,88.00
2019-03-30T23:58:34.534Z,88.90
